Time;durP1;ratioP1;P1;durP2;ratioP2;P2;SDS_P1;SDS_P2;PMS_P1;PMS_P2;Temp;Humidity;BMP_temperature;BMP_pressure;BME280_temperature;BME280_humidity;BME280_pressure;Samples;Min_cycle;Max_cycle;Signal;HPM_P1;HPM_P2
2022/04/25 00:02:22;;;;;;;37.75;27.73;;;;;;;11.11;94.45;99019.19;4975673;28;20816;-58
2022/04/25 00:04:47;;;;;;;35.13;27.58;;;;;;;11.20;94.33;99013.69;4975161;28;20039;-58
2022/04/25 00:07:13;;;;;;;34.08;27.15;;;;;;;11.05;94.32;99011.63;4975637;28;20114;-58
2022/04/25 00:09:38;;;;;;;36.78;27.90;;;;;;;11.13;94.68;99014.81;4975376;28;20064;-58
2022/04/25 00:12:04;;;;;;;37.65;27.52;;;;;;;11.12;94.60;99009.69;4975580;28;20031;-58
2022/04/25 00:14:30;;;;;;;36.13;27.73;;;;;;;11.22;94.63;99011.06;4975214;28;20480;-57
2022/04/25 00:16:56;;;;;;;36.83;28.17;;;;;;;11.22;94.53;99014.47;4975280;28;20110;-58
2022/04/25 00:19:22;;;;;;;37.90;28.38;;;;;;;11.08;94.93;99008.09;4975483;28;20027;-58
2022/04/25 00:21:48;;;;;;;36.35;28.30;;;;;;;11.09;95.25;99009.75;4958093;28;20495;-57
2022/04/25 00:24:14;;;;;;;33.78;27.02;;;;;;;11.11;94.92;99011.41;4975216;28;20051;-57
2022/04/25 00:26:39;;;;;;;32.65;26.30;;;;;;;11.17;94.64;99005.16;4975204;28;20427;-59
2022/04/25 00:29:05;;;;;;;38.70;27.08;;;;;;;11.03;94.90;99003.06;4975329;28;20031;-59
2022/04/25 00:31:30;;;;;;;35.00;26.70;;;;;;;11.04;95.61;99010.78;4975354;28;20031;-57
2022/04/25 00:33:56;;;;;;;33.67;26.48;;;;;;;11.18;94.77;99012.88;4975259;28;20046;-57
2022/04/25 00:36:21;;;;;;;32.33;24.75;;;;;;;11.31;94.50;99010.72;4975149;28;20050;-58
2022/04/25 00:38:47;;;;;;;31.02;25.25;;;;;;;11.38;93.86;99011.34;4975168;28;20026;-58
2022/04/25 00:41:13;;;;;;;33.20;25.40;;;;;;;11.30;93.91;99010.78;4975175;28;20093;-58
2022/04/25 00:43:38;;;;;;;34.60;26.48;;;;;;;11.30;93.97;99001.25;4968851;28;20023;-59
2022/04/25 00:46:04;;;;;;;37.70;27.10;;;;;;;11.46;93.62;99009.34;4978260;28;20050;-58
2022/04/25 00:48:30;;;;;;;39.00;27.90;;;;;;;11.46;93.53;99004.16;4957690;28;20038;-58
2022/04/25 00:50:55;;;;;;;34.15;26.35;;;;;;;11.50;93.39;99007.47;4974951;28;20078;-58
2022/04/25 00:53:21;;;;;;;36.25;27.20;;;;;;;11.47;93.02;99005.84;4974765;28;20081;-58
2022/04/25 00:55:48;;;;;;;35.58;26.30;;;;;;;11.49;93.03;99006.63;4974763;28;20039;-58
2022/04/25 00:58:14;;;;;;;36.35;27.52;;;;;;;11.42;92.98;99005.16;4974640;28;20400;-58
2022/04/25 01:00:40;;;;;;;35.33;27.35;;;;;;;11.35;93.33;98986.38;4974828;28;20054;-59
2022/04/25 01:03:05;;;;;;;35.20;25.17;;;;;;;11.45;93.45;99005.03;4974686;28;20030;-58
2022/04/25 01:05:31;;;;;;;34.80;27.13;;;;;;;11.54;92.86;99009.91;4974498;28;20503;-59
2022/04/25 01:07:59;;;;;;;36.10;26.20;;;;;;;11.55;92.89;99011.56;4974563;28;20507;-57
2022/04/25 01:10:24;;;;;;;36.17;27.67;;;;;;;11.55;92.71;99008.97;4974634;28;20031;-58
2022/04/25 01:12:50;;;;;;;36.83;27.48;;;;;;;11.49;92.53;99008.38;4974522;28;20388;-58
2022/04/25 01:15:16;;;;;;;32.90;25.77;;;;;;;11.42;93.02;99010.34;4974333;28;20110;-58
2022/04/25 01:17:42;;;;;;;36.08;27.20;;;;;;;11.45;93.14;99018.00;4974564;28;20038;-58
2022/04/25 01:20:09;;;;;;;34.38;26.70;;;;;;;11.51;92.78;99015.19;4974480;28;20042;-58
2022/04/25 01:22:38;;;;;;;35.50;25.95;;;;;;;11.12;92.83;98952.69;4973421;28;20468;-58
2022/04/25 01:27:48;;;;;;;34.83;26.40;;;;;;;11.48;93.27;99012.69;4974387;28;20053;-58
2022/04/25 01:30:13;;;;;;;36.53;26.85;;;;;;;11.53;93.34;99008.22;4974304;28;20488;-58
2022/04/25 01:32:39;;;;;;;40.63;27.73;;;;;;;11.61;93.12;99015.69;4974043;28;20035;-58
2022/04/25 01:35:05;;;;;;;37.50;27.73;;;;;;;11.53;93.29;99009.97;4974241;28;20037;-59
2022/04/25 01:37:31;;;;;;;37.38;27.30;;;;;;;11.55;92.71;99008.97;4974463;28;20392;-58
2022/04/25 01:39:57;;;;;;;36.53;27.30;;;;;;;11.62;93.13;99008.78;4973885;28;20110;-59
2022/04/25 01:42:23;;;;;;;35.65;27.55;;;;;;;11.52;92.98;99006.50;4973992;28;20468;-58
2022/04/25 01:44:50;;;;;;;37.47;28.45;;;;;;;11.41;93.76;99008.63;4973899;28;20041;-58
2022/04/25 01:47:16;;;;;;;32.75;26.17;;;;;;;11.51;93.83;98997.03;4973642;28;20093;-58
2022/04/25 01:49:42;;;;;;;34.72;26.20;;;;;;;11.55;93.44;98998.59;4974228;28;20046;-58
2022/04/25 01:52:30;;;;;;;34.20;26.52;;;;;;;11.50;93.28;99000.53;4956561;28;20441;-57
2022/04/25 01:54:56;;;;;;;39.78;27.92;;;;;;;11.46;93.58;98998.09;4973711;28;20027;-58
2022/04/25 01:57:22;;;;;;;38.65;26.10;;;;;;;11.53;93.14;98995.25;4973853;28;20030;-58
2022/04/25 01:59:47;;;;;;;35.65;26.83;;;;;;;11.55;93.19;99002.97;4956391;28;20118;-58
2022/04/25 02:02:14;;;;;;;34.00;25.90;;;;;;;11.60;93.00;99000.19;4973772;28;20031;-59
2022/04/25 02:04:41;;;;;;;33.35;25.73;;;;;;;11.58;92.93;98998.50;4973986;28;20499;-59
2022/04/25 02:07:08;;;;;;;37.20;25.85;;;;;;;11.48;93.49;98998.91;4973773;28;20130;-58
2022/04/25 02:09:35;;;;;;;32.40;24.08;;;;;;;11.53;93.33;99009.97;4973796;28;20023;-59
2022/04/25 02:12:00;;;;;;;34.63;25.23;;;;;;;11.56;92.99;99002.06;4973969;28;20157;-59
2022/04/25 02:14:29;;;;;;;32.10;25.25;;;;;;;11.60;92.88;99002.78;4973617;28;20034;-57
2022/04/25 02:16:54;;;;;;;31.73;23.27;;;;;;;11.57;92.78;99006.34;4961445;28;20522;-58
2022/04/25 02:19:20;;;;;;;29.73;23.05;;;;;;;11.55;92.32;99006.38;4968229;28;20034;-58
2022/04/25 02:21:46;;;;;;;30.48;23.45;;;;;;;11.48;92.43;99004.91;4972587;28;20034;-58
2022/04/25 02:24:12;;;;;;;27.23;21.48;;;;;;;11.58;91.80;99003.69;4972863;28;20023;-58
2022/04/25 02:26:37;;;;;;;26.20;20.30;;;;;;;11.62;91.78;99008.78;4973021;28;20530;-58
2022/04/25 02:29:03;;;;;;;25.63;21.10;;;;;;;11.55;92.09;99016.75;4973079;28;20031;-58
2022/04/25 02:31:28;;;;;;;27.67;20.60;;;;;;;11.60;92.31;99010.56;4972957;28;20455;-58
2022/04/25 02:33:54;;;;;;;28.38;21.35;;;;;;;11.63;91.45;99007.84;4957253;28;20042;-59
2022/04/25 02:36:19;;;;;;;25.92;20.63;;;;;;;11.65;91.05;99011.25;4976762;28;20023;-58
2022/04/25 02:38:45;;;;;;;24.52;19.92;;;;;;;11.73;91.52;99015.25;4976819;28;20085;-58
2022/04/25 02:41:11;;;;;;;25.17;20.10;;;;;;;11.70;90.91;99012.78;4975537;28;20085;-59
2022/04/25 02:43:42;;;;;;;26.63;20.80;;;;;;;11.66;91.63;99023.34;4976309;28;20035;-58
2022/04/25 02:46:09;;;;;;;26.00;21.48;;;;;;;11.68;90.69;99024.09;4976300;28;20484;-58
2022/04/25 02:48:36;;;;;;;23.20;18.23;;;;;;;11.70;90.74;99017.09;4975605;28;20027;-58
2022/04/25 02:51:03;;;;;;;23.33;18.20;;;;;;;11.66;89.91;99018.16;4974518;28;20091;-59
2022/04/25 02:53:29;;;;;;;20.70;17.55;;;;;;;11.56;89.90;99018.47;4974364;28;20494;-58
2022/04/25 02:55:56;;;;;;;23.10;17.50;;;;;;;11.67;89.91;99017.22;4974386;28;20115;-59
2022/04/25 02:58:22;;;;;;;20.08;17.08;;;;;;;11.69;88.72;99031.00;4974521;28;20033;-59
2022/04/25 03:00:48;;;;;;;21.40;17.23;;;;;;;11.62;89.32;99019.16;4974509;28;20062;-58
2022/04/25 03:03:16;;;;;;;21.13;15.25;;;;;;;11.70;88.43;98975.59;4974919;28;20030;-58
2022/04/25 03:05:45;;;;;;;18.90;15.05;;;;;;;12.22;86.85;99025.53;4976152;28;20415;-59
2022/04/25 03:08:12;;;;;;;17.45;15.23;;;;;;;12.53;85.38;99024.34;4976042;28;20515;-59
2022/04/25 03:10:38;;;;;;;17.55;14.23;;;;;;;12.55;84.14;99026.88;4976164;28;20043;-59
2022/04/25 03:13:06;;;;;;;18.02;13.43;;;;;;;12.64;85.34;99034.31;4976303;28;20030;-59
2022/04/25 03:15:33;;;;;;;14.82;13.18;;;;;;;12.67;84.21;99035.91;4975835;28;20055;-59
2022/04/25 03:18:00;;;;;;;15.95;14.20;;;;;;;12.65;84.62;99029.94;4976226;28;20038;-59
2022/04/25 03:20:27;;;;;;;16.95;13.90;;;;;;;12.52;84.69;99038.22;4976025;28;20169;-59
2022/04/25 03:22:53;;;;;;;16.17;13.43;;;;;;;12.37;84.29;99026.72;4975758;28;20466;-58
2022/04/25 03:25:19;;;;;;;19.40;15.07;;;;;;;12.32;83.88;99026.03;4975977;28;20034;-59
2022/04/25 03:27:44;;;;;;;15.75;13.18;;;;;;;12.20;84.12;99027.38;4975885;28;20030;-59
2022/04/25 03:30:10;;;;;;;15.45;13.13;;;;;;;11.99;84.75;99042.00;4975906;28;20034;-58
2022/04/25 03:32:36;;;;;;;16.55;12.82;;;;;;;12.06;84.79;99040.88;4975771;28;20031;-58
2022/04/25 03:35:03;;;;;;;17.17;12.68;;;;;;;12.06;84.24;99040.88;4975412;28;20057;-58
2022/04/25 03:37:30;;;;;;;18.38;12.77;;;;;;;12.04;84.66;99037.50;4975843;28;20031;-59
2022/04/25 03:39:58;;;;;;;16.92;11.52;;;;;;;11.95;85.46;99037.81;4975775;28;20042;-58
2022/04/25 03:42:24;;;;;;;16.05;12.02;;;;;;;11.98;84.53;99049.84;4975523;28;20066;-58
2022/04/25 03:44:50;;;;;;;15.63;11.85;;;;;;;12.00;84.39;99045.44;4974468;28;20557;-58
2022/04/25 03:47:16;;;;;;;15.02;13.20;;;;;;;12.02;84.98;99043.66;4975414;28;20050;-59
2022/04/25 03:49:41;;;;;;;14.75;11.98;;;;;;;11.98;84.87;99044.66;4974775;28;20034;-59
2022/04/25 03:52:07;;;;;;;13.85;10.60;;;;;;;12.04;84.22;99053.06;4975221;28;20113;-59
2022/04/25 03:57:17;;;;;;;11.40;10.20;;;;;;;12.01;84.56;99047.13;4975395;28;20058;-59
2022/04/25 03:59:43;;;;;;;14.05;12.07;;;;;;;12.06;84.18;99040.03;4975256;28;20026;-59
2022/04/25 04:02:08;;;;;;;16.05;11.13;;;;;;;12.04;83.48;99037.50;4975129;28;20031;-60
2022/04/25 04:04:34;;;;;;;12.25;10.55;;;;;;;12.14;83.89;99040.59;4974988;28;20043;-59
2022/04/25 04:07:01;;;;;;;13.65;10.38;;;;;;;11.50;83.33;98903.75;4975142;28;20439;-59
2022/04/25 04:09:45;;;;;;;13.75;10.07;;;;;;;12.43;83.08;99033.41;4975028;28;20066;-60
2022/04/25 04:12:14;;;;;;;16.10;10.30;;;;;;;12.39;81.92;99029.25;4974684;28;20477;-60
2022/04/25 04:14:41;;;;;;;11.48;9.73;;;;;;;12.63;82.17;99029.16;4974959;28;20031;-60
2022/04/25 04:17:07;;;;;;;12.30;9.95;;;;;;;12.41;80.31;99035.19;4974670;28;20034;-60
2022/04/25 04:19:37;;;;;;;12.73;9.15;;;;;;;12.38;80.51;99030.13;4974994;28;20030;-59
2022/04/25 04:22:06;;;;;;;9.68;8.70;;;;;;;12.56;80.06;99029.41;4974747;28;20038;-60
2022/04/25 04:24:34;;;;;;;11.63;9.18;;;;;;;12.57;79.44;99027.66;4974591;28;20034;-60
2022/04/25 04:27:04;;;;;;;9.70;8.70;;;;;;;12.47;77.81;99018.53;4974440;28;20115;-60
2022/04/25 04:29:34;;;;;;;9.88;8.15;;;;;;;12.47;78.77;99016.81;4974201;28;20023;-60
2022/04/25 04:32:02;;;;;;;10.60;8.15;;;;;;;12.37;77.87;98995.53;4974756;28;20043;-60
2022/04/25 04:34:28;;;;;;;10.02;7.93;;;;;;;12.54;78.11;99015.66;4974414;28;20038;-61
2022/04/25 04:36:54;;;;;;;10.02;7.70;;;;;;;12.53;77.59;99003.56;4957125;28;20508;-60
2022/04/25 04:39:19;;;;;;;9.02;8.02;;;;;;;12.71;77.24;99012.38;4974179;28;20062;-60
2022/04/25 04:41:45;;;;;;;9.80;7.93;;;;;;;12.91;76.89;99011.53;4974198;28;20058;-61
2022/04/25 04:44:11;;;;;;;8.15;7.30;;;;;;;13.08;76.65;99010.81;4974170;28;20027;-61
2022/04/25 04:46:37;;;;;;;8.75;7.85;;;;;;;12.92;74.80;98986.38;4974274;28;20078;-60
2022/04/25 04:49:03;;;;;;;10.57;8.35;;;;;;;12.62;77.00;99001.50;4974166;28;20069;-61
2022/04/25 04:51:29;;;;;;;11.25;8.68;;;;;;;12.94;76.49;99006.19;4974345;28;20050;-61
2022/04/25 04:53:54;;;;;;;9.13;8.05;;;;;;;12.73;75.87;98994.94;4973469;28;20027;-61
2022/04/25 04:56:20;;;;;;;11.38;8.38;;;;;;;12.74;75.35;99004.44;4974174;28;20027;-61
2022/04/25 04:58:45;;;;;;;9.07;8.18;;;;;;;12.60;76.00;99007.59;4956799;28;20049;-61
2022/04/25 05:01:11;;;;;;;9.40;8.10;;;;;;;12.56;76.55;99000.00;4956620;28;20027;-61
2022/04/25 05:03:41;;;;;;;10.95;7.85;;;;;;;13.05;75.53;99000.53;4973668;28;20035;-61
2022/04/25 05:06:07;;;;;;;9.98;7.80;;;;;;;13.52;74.29;99006.38;4973815;28;20038;-57
2022/04/25 05:08:33;;;;;;;10.70;8.18;;;;;;;14.43;70.84;99007.38;4973016;28;20027;-58
2022/04/25 05:10:59;;;;;;;9.02;8.00;;;;;;;15.02;68.34;99010.56;4988844;28;20389;-59
2022/04/25 05:13:24;;;;;;;8.27;7.38;;;;;;;15.41;66.28;99019.06;4973655;28;20109;-60
2022/04/25 05:15:50;;;;;;;8.38;7.45;;;;;;;15.79;64.15;99017.06;4959690;28;20028;-60
2022/04/25 05:18:16;;;;;;;10.07;8.00;;;;;;;15.81;65.74;99019.56;4954447;29;20031;-59
2022/04/25 05:20:41;;;;;;;8.70;7.78;;;;;;;15.67;66.64;99020.28;4958971;28;20031;-59
2022/04/25 05:23:10;;;;;;;10.52;7.65;;;;;;;15.30;64.44;99030.03;4953819;28;20117;-60
2022/04/25 05:25:38;;;;;;;11.32;8.68;;;;;;;14.33;67.18;99026.03;4955948;28;20384;-59
2022/04/25 05:28:04;;;;;;;9.60;8.40;;;;;;;14.53;67.09;99033.84;4990019;28;20153;-60
2022/04/25 05:30:30;;;;;;;9.90;8.23;;;;;;;14.26;67.91;99040.28;4978433;28;20035;-58
2022/04/25 05:32:57;;;;;;;9.52;7.30;;;;;;;14.16;67.91;99046.84;4973209;28;20038;-59
2022/04/25 05:35:29;;;;;;;12.80;8.65;;;;;;;13.85;68.73;98998.78;4973067;28;20097;-59
2022/04/25 05:37:55;;;;;;;10.88;8.77;;;;;;;14.20;68.93;99051.00;4973357;28;20022;-60
2022/04/25 05:40:21;;;;;;;10.88;9.00;;;;;;;14.07;69.79;99039.47;4992129;28;20030;-59
2022/04/25 05:42:49;;;;;;;9.85;8.73;;;;;;;13.96;70.39;99040.78;4992134;28;20045;-60
2022/04/25 05:45:16;;;;;;;9.52;8.50;;;;;;;13.69;70.90;99016.03;4972530;28;20027;-60
2022/04/25 05:47:45;;;;;;;9.05;7.75;;;;;;;13.83;69.96;99059.66;4959331;28;20106;-60
2022/04/25 05:52:57;;;;;;;11.00;8.50;;;;;;;13.92;70.20;99044.47;4972547;28;20101;-60
2022/04/25 05:55:23;;;;;;;13.25;7.97;;;;;;;13.85;69.22;99058.66;4972743;28;20031;-60
2022/04/25 05:57:50;;;;;;;9.10;7.25;;;;;;;13.84;68.80;99062.19;4986898;28;20034;-61
2022/04/25 06:00:16;;;;;;;8.93;7.20;;;;;;;13.97;69.16;99058.09;4982675;28;20062;-59
2022/04/25 06:02:43;;;;;;;10.45;7.70;;;;;;;13.66;69.20;99047.38;4972898;28;20045;-59
2022/04/25 06:05:11;;;;;;;9.60;7.15;;;;;;;13.78;68.22;99059.84;4972727;28;20484;-60
2022/04/25 06:07:38;;;;;;;10.23;8.00;;;;;;;13.40;68.90;99059.78;4973305;28;20050;-59
2022/04/25 06:10:04;;;;;;;8.50;7.60;;;;;;;13.62;69.38;99065.75;4995524;28;20041;-59
2022/04/25 06:12:30;;;;;;;8.27;7.47;;;;;;;13.60;69.42;99066.72;4998791;28;20037;-59
2022/04/25 06:15:02;;;;;;;8.80;7.50;;;;;;;14.06;69.22;99059.44;4977336;28;20019;-59
2022/04/25 06:17:28;;;;;;;7.90;6.88;;;;;;;14.23;68.67;99063.03;4963637;28;20031;-60
2022/04/25 06:19:54;;;;;;;8.68;7.10;;;;;;;14.31;68.34;99069.56;4979399;28;20038;-59
2022/04/25 06:22:20;;;;;;;8.57;7.43;;;;;;;14.35;69.40;99072.03;4979081;28;20022;-60
2022/04/25 06:24:46;;;;;;;8.93;7.32;;;;;;;14.21;67.07;99075.25;4979236;28;20118;-59
2022/04/25 06:27:13;;;;;;;8.55;7.65;;;;;;;14.03;66.81;99075.19;4979330;28;20038;-59
2022/04/25 06:29:42;;;;;;;9.25;8.13;;;;;;;14.00;68.26;99067.53;4979348;28;20034;-59
2022/04/25 06:32:08;;;;;;;8.27;7.22;;;;;;;14.13;67.76;99066.03;4979083;28;20107;-59
2022/04/25 06:34:34;;;;;;;9.98;7.30;;;;;;;14.25;66.65;99069.84;4979177;28;20468;-60
2022/04/25 06:37:00;;;;;;;7.88;6.90;;;;;;;14.16;66.44;99065.06;4979031;28;20030;-59
2022/04/25 06:39:25;;;;;;;9.82;7.65;;;;;;;14.27;66.90;99060.19;4979268;28;20466;-60
2022/04/25 06:41:51;;;;;;;10.30;7.32;;;;;;;14.52;66.32;99042.56;4979335;28;20113;-59
2022/04/25 06:44:16;;;;;;;9.48;6.88;;;;;;;14.77;64.94;99037.88;4978717;28;20038;-59
2022/04/25 06:46:43;;;;;;;8.23;7.07;;;;;;;15.08;64.89;99033.75;4961857;28;20101;-59
2022/04/25 06:49:23;;;;;;;9.15;7.03;;;;;;;15.32;64.26;99028.19;4979292;28;20031;-59
2022/04/25 06:51:53;;;;;;;11.40;6.85;;;;;;;15.37;63.95;99031.41;4978950;28;20027;-60
2022/04/25 06:54:20;;;;;;;10.45;7.35;;;;;;;15.65;63.82;99024.75;4979019;28;20439;-60
2022/04/25 06:56:47;;;;;;;11.15;7.60;;;;;;;15.54;63.47;99025.31;4984315;28;20085;-59
2022/04/25 06:59:13;;;;;;;10.18;7.05;;;;;;;15.50;61.72;99015.94;4998057;28;20057;-60
2022/04/25 07:01:42;;;;;;;9.65;7.32;;;;;;;16.01;61.81;99021.09;4979282;28;20054;-60
2022/04/25 07:04:11;;;;;;;9.30;6.95;;;;;;;16.39;60.31;99011.13;4994901;28;20090;-58
2022/04/25 07:06:38;;;;;;;7.32;6.63;;;;;;;16.89;59.58;99003.13;4973663;28;20386;-59
2022/04/25 07:09:04;;;;;;;8.90;7.07;;;;;;;17.52;58.97;99014.22;4975031;28;20436;-59
2022/04/25 07:11:30;;;;;;;9.68;7.07;;;;;;;18.08;57.22;99014.28;4998547;28;20050;-59
2022/04/25 07:13:56;;;;;;;8.45;7.55;;;;;;;18.65;56.00;99005.34;4998578;28;20500;-59
2022/04/25 07:16:24;;;;;;;8.45;7.03;;;;;;;19.39;54.59;99008.28;4961565;28;20031;-59
2022/04/25 07:18:50;;;;;;;9.05;6.95;;;;;;;19.92;53.17;99007.31;4973429;28;20023;-59
2022/04/25 07:29:28;;;;;;;10.63;7.38;;;;;;;19.12;49.28;99003.16;4989144;28;20039;-60
2022/04/25 07:31:54;;;;;;;9.65;7.43;;;;;;;19.76;50.91;99010.97;4956398;29;20028;-59
2022/04/25 07:34:21;;;;;;;12.55;7.82;;;;;;;18.84;51.77;98960.38;4973936;28;20022;-60
2022/04/25 07:36:54;;;;;;;12.35;7.63;;;;;;;18.94;49.88;98997.34;4975188;28;20122;-60
2022/04/25 07:39:22;;;;;;;8.48;7.05;;;;;;;17.93;51.20;99014.31;4974469;28;20042;-60
2022/04/25 07:41:50;;;;;;;9.95;6.65;;;;;;;18.23;52.42;99009.84;4954838;29;20023;-60
2022/04/25 07:44:16;;;;;;;13.55;7.63;;;;;;;18.77;52.05;99007.19;4957091;28;20031;-59
2022/04/25 07:46:42;;;;;;;14.45;6.45;;;;;;;18.62;50.73;99008.19;4958046;28;20530;-60
2022/04/25 07:49:12;;;;;;;12.85;7.18;;;;;;;17.86;53.51;99009.53;4975300;28;20114;-59
2022/04/25 07:51:41;;;;;;;10.52;7.35;;;;;;;18.21;53.13;98999.47;4975138;28;20178;-59
2022/04/25 07:54:08;;;;;;;8.32;6.35;;;;;;;18.50;52.85;98995.88;4957737;28;20034;-60
2022/04/25 07:56:35;;;;;;;10.75;6.95;;;;;;;18.32;51.87;98996.13;4974824;28;20023;-59
2022/04/25 07:59:01;;;;;;;8.13;7.15;;;;;;;17.81;50.62;99001.94;4975267;28;20038;-60
2022/04/25 08:01:30;;;;;;;10.45;7.80;;;;;;;16.82;53.04;98993.94;4993483;28;20030;-59
2022/04/25 08:03:55;;;;;;;8.90;6.80;;;;;;;17.14;53.24;98986.78;4979805;28;20081;-59
2022/04/25 08:06:22;;;;;;;11.85;8.27;;;;;;;16.43;53.75;99001.34;4974873;28;20476;-60
2022/04/25 08:08:51;;;;;;;12.88;7.95;;;;;;;16.74;54.39;98990.00;4975032;28;20491;-59
2022/04/25 08:11:18;;;;;;;10.52;7.10;;;;;;;17.18;55.15;99005.78;4957498;28;20043;-59
2022/04/25 08:19:13;;;;;;;7.95;7.15;;;;;;;17.03;53.65;98999.69;4974485;28;20456;-60
2022/04/25 08:21:40;;;;;;;11.88;8.02;;;;;;;17.42;54.79;98990.38;4984181;28;20074;-59
2022/04/25 08:24:06;;;;;;;8.98;8.10;;;;;;;17.53;54.27;98980.09;4974774;28;20030;-60
2022/04/25 08:26:32;;;;;;;12.07;7.50;;;;;;;17.86;54.10;98991.19;4974469;28;20415;-58
2022/04/25 08:28:59;;;;;;;12.18;8.15;;;;;;;17.29;52.33;98985.03;4974288;28;20034;-60
2022/04/25 08:31:26;;;;;;;9.38;7.63;;;;;;;17.67;53.47;98984.47;4974293;28;20034;-59
2022/04/25 08:33:52;;;;;;;8.98;8.07;;;;;;;17.90;53.61;98971.69;4974442;28;20023;-59
2022/04/25 08:36:18;;;;;;;12.20;8.63;;;;;;;17.80;51.35;98991.56;4974295;28;20038;-60
2022/04/25 08:38:45;;;;;;;12.00;8.73;;;;;;;17.50;52.39;98974.19;4974461;28;20113;-60
2022/04/25 08:41:13;;;;;;;12.65;7.80;;;;;;;17.73;52.02;98923.84;4974169;28;20031;-60
2022/04/25 08:43:40;;;;;;;10.98;8.00;;;;;;;18.36;52.23;98963.53;4974362;28;20035;-60
2022/04/25 08:46:10;;;;;;;12.38;7.65;;;;;;;18.17;50.47;98956.03;4973914;28;20034;-60
2022/04/25 08:48:39;;;;;;;10.52;8.30;;;;;;;18.02;50.81;98965.72;4985828;28;20038;-59
2022/04/25 08:51:04;;;;;;;12.15;7.68;;;;;;;18.27;51.35;98959.75;4976136;28;20026;-60
2022/04/25 08:53:32;;;;;;;10.88;8.70;;;;;;;18.33;50.51;98949.78;4978649;28;20045;-59
2022/04/25 08:56:02;;;;;;;11.20;8.32;;;;;;;18.00;50.95;98946.66;4973985;28;20443;-59
2022/04/25 08:58:31;;;;;;;16.15;9.63;;;;;;;17.75;51.50;98944.69;4974193;28;20027;-59
2022/04/25 09:00:58;;;;;;;15.63;10.05;;;;;;;17.65;51.79;98947.06;4986891;28;20041;-60
2022/04/25 09:03:24;;;;;;;12.38;8.68;;;;;;;17.71;52.41;98944.03;4965991;28;20506;-60
2022/04/25 09:05:50;;;;;;;9.40;8.00;;;;;;;18.05;50.59;98931.44;4973387;28;20047;-60
2022/04/25 09:08:16;;;;;;;10.73;7.72;;;;;;;17.76;50.93;98931.50;4974030;28;20027;-59
2022/04/25 09:10:44;;;;;;;10.73;8.10;;;;;;;18.13;51.80;98882.94;4973920;28;20057;-60
2022/04/25 09:13:11;;;;;;;11.00;7.88;;;;;;;18.21;51.00;98928.69;4973726;28;20181;-60
2022/04/25 09:15:37;;;;;;;11.23;8.45;;;;;;;18.01;48.72;98931.75;4972364;28;20332;-61
2022/04/25 09:18:04;;;;;;;9.30;7.85;;;;;;;17.61;48.96;98924.63;4973525;28;20117;-60
2022/04/25 09:20:29;;;;;;;8.65;7.70;;;;;;;17.28;50.51;98917.94;4973964;28;20034;-60
2022/04/25 09:22:55;;;;;;;9.77;7.50;;;;;;;17.95;50.40;98925.13;4973365;28;20542;-60
2022/04/25 09:25:21;;;;;;;13.07;7.35;;;;;;;18.12;49.16;98926.66;4973680;28;20045;-61
2022/04/25 09:27:47;;;;;;;10.70;8.38;;;;;;;17.88;50.02;98926.44;4973556;28;20046;-61
2022/04/25 09:30:23;;;;;;;11.60;7.53;;;;;;;16.98;50.13;98884.03;4973247;28;20053;-60
2022/04/25 09:32:52;;;;;;;9.95;7.25;;;;;;;17.40;50.79;98930.25;4978080;28;20125;-60
2022/04/25 09:35:32;;;;;;;9.95;6.80;;;;;;;17.64;49.74;98928.81;4992969;28;20050;-61
2022/04/25 09:38:03;;;;;;;11.57;8.63;;;;;;;17.71;50.32;98917.84;4993076;28;20094;-60
2022/04/25 09:40:33;;;;;;;13.18;7.70;;;;;;;17.76;49.84;98910.56;4957006;28;20033;-60
2022/04/25 09:43:04;;;;;;;10.98;7.43;;;;;;;17.66;49.15;98871.94;4969448;28;20083;-59
2022/04/25 09:45:31;;;;;;;11.13;9.93;;;;;;;17.77;49.98;98911.38;4973164;28;20038;-60
2022/04/25 09:47:57;;;;;;;16.58;7.95;;;;;;;17.96;48.91;98911.09;4973089;28;20514;-60
2022/04/25 09:50:27;;;;;;;9.65;7.30;;;;;;;17.87;48.92;98909.03;4970028;28;20037;-59
2022/04/25 09:52:55;;;;;;;9.85;8.13;;;;;;;17.85;50.06;98903.06;4973837;28;20026;-59
2022/04/25 09:55:22;;;;;;;8.57;7.57;;;;;;;18.22;49.54;98912.00;4973815;28;20034;-59
2022/04/25 09:57:50;;;;;;;10.98;8.65;;;;;;;18.32;48.46;98893.06;4973807;28;20034;-59
2022/04/25 10:00:33;;;;;;;10.88;7.18;;;;;;;18.23;48.09;98897.13;4974625;28;20026;-60
2022/04/25 10:03:02;;;;;;;8.40;6.65;;;;;;;18.35;48.11;98898.09;4973618;28;20106;-59
2022/04/25 10:05:39;;;;;;;8.02;6.35;;;;;;;18.48;46.69;98908.59;4973569;28;20124;-59
2022/04/25 10:08:07;;;;;;;7.05;6.32;;;;;;;18.58;47.67;98901.78;4973659;28;20050;-59
2022/04/25 10:10:34;;;;;;;12.30;7.00;;;;;;;18.23;46.87;98886.66;4973564;28;20114;-59
2022/04/25 10:13:01;;;;;;;8.30;7.07;;;;;;;18.39;46.97;98892.53;4973567;28;20428;-59
2022/04/25 10:15:27;;;;;;;10.85;6.80;;;;;;;18.53;46.75;98904.75;4964215;28;20026;-59
2022/04/25 10:17:54;;;;;;;8.45;6.57;;;;;;;18.20;46.44;98861.47;4975392;28;20384;-60
2022/04/25 10:20:20;;;;;;;9.07;6.45;;;;;;;18.44;45.52;98910.59;4991669;28;20061;-60
2022/04/25 10:22:46;;;;;;;8.45;6.43;;;;;;;18.56;45.97;98898.44;4965237;28;20058;-60
2022/04/25 10:25:12;;;;;;;7.47;6.10;;;;;;;18.63;45.93;98899.72;4973398;28;20030;-60
2022/04/25 10:27:42;;;;;;;9.27;6.47;;;;;;;18.68;46.07;98887.13;4973582;28;20026;-59
2022/04/25 10:30:14;;;;;;;8.65;6.47;;;;;;;18.48;46.51;98896.31;4955863;28;20442;-59
2022/04/25 10:32:41;;;;;;;10.45;7.65;;;;;;;18.62;47.65;98891.00;4973245;28;20120;-59
2022/04/25 10:35:13;;;;;;;8.82;7.68;;;;;;;18.49;46.86;98881.44;4973185;28;20035;-59
2022/04/25 10:37:41;;;;;;;9.50;6.65;;;;;;;18.30;46.04;98887.94;4973389;28;20086;-60
2022/04/25 10:44:09;;;;;;;7.93;6.68;;;;;;;18.11;47.02;98841.97;4973218;28;20023;-59
2022/04/25 10:46:02;;;;;;;12.10;6.60;;;;;;;17.99;46.49;98895.16;4972987;28;20056;-60
2022/04/25 10:48:49;;;;;;;8.70;7.07;;;;;;;18.42;46.38;98886.25;4973309;28;20492;-60
2022/04/25 10:51:17;;;;;;;7.82;6.28;;;;;;;18.50;45.81;98881.34;4973350;28;20031;-58
2022/04/25 10:53:59;;;;;;;10.75;6.78;;;;;;;18.32;45.84;98875.53;4973128;28;20042;-60
2022/04/25 10:56:27;;;;;;;6.97;6.28;;;;;;;18.59;45.70;98874.63;4977852;28;20023;-60
2022/04/25 10:59:23;;;;;;;9.55;6.43;;;;;;;18.09;45.01;98877.06;4996372;28;20045;-61
2022/04/25 11:01:49;;;;;;;8.00;6.28;;;;;;;18.39;43.67;98889.91;4971557;28;20038;-60
2022/04/25 11:04:16;;;;;;;8.43;6.63;;;;;;;18.44;44.53;98877.34;4976253;28;20381;-60
2022/04/25 11:06:41;;;;;;;9.38;6.88;;;;;;;18.22;44.87;98866.63;4978870;28;20185;-59
2022/04/25 11:09:07;;;;;;;9.38;7.10;;;;;;;18.61;44.99;98859.63;4976404;28;20532;-59
2022/04/25 11:11:51;;;;;;;7.72;6.18;;;;;;;18.63;43.95;98868.25;4976417;28;20035;-60
2022/04/25 11:14:17;;;;;;;11.32;6.57;;;;;;;18.69;43.51;98862.56;4957548;28;20027;-59
2022/04/25 11:17:13;;;;;;;13.98;10.52;;;;;;;18.47;42.38;98863.22;4957187;29;20488;-59
2022/04/25 11:19:57;;;;;;;12.30;5.38;;;;;;;18.63;43.09;98876.94;4974529;28;20444;-59
2022/04/25 11:22:41;;;;;;;9.02;6.10;;;;;;;18.17;43.33;98869.56;4976253;28;20081;-59
2022/04/25 11:25:27;;;;;;;6.53;5.90;;;;;;;18.32;43.48;98874.72;4977856;28;20134;-59
2022/04/25 11:28:19;;;;;;;7.07;5.95;;;;;;;17.91;43.84;98876.47;4955739;28;20070;-60
2022/04/25 11:31:05;;;;;;;;;;;;;;;18.11;43.76;98860.31;4971153;28;20511;-59
2022/04/25 11:33:43;;;;;;;6.53;5.70;;;;;;;18.03;43.68;98819.84;4976075;28;19910;-60
2022/04/25 11:36:11;;;;;;;7.10;5.80;;;;;;;18.23;43.60;98863.88;4982435;28;20030;-59
2022/04/25 11:41:26;;;;;;;7.28;5.68;;;;;;;18.16;44.05;98865.25;4976569;28;20034;-58
2022/04/25 11:43:52;;;;;;;6.38;5.60;;;;;;;18.15;42.41;98865.34;4995557;28;20113;-60
2022/04/25 11:46:17;;;;;;;8.68;5.40;;;;;;;18.18;42.50;98858.09;4977757;28;20142;-59
2022/04/25 11:48:50;;;;;;;6.35;5.38;;;;;;;18.20;42.48;98865.88;4995024;28;20045;-59
2022/04/25 11:51:39;;;;;;;5.15;4.65;;;;;;;18.14;41.86;98850.56;4975454;28;20185;-60
2022/04/25 11:54:06;;;;;;;7.72;5.30;;;;;;;17.85;42.95;98853.28;4975199;28;20030;-59
2022/04/25 11:56:34;;;;;;;6.88;5.53;;;;;;;17.81;43.41;98857.03;4975435;28;20030;-58